Brightons, United Kingdom

3:30 AM GMT on December 19, 2014 (GMT +0000)
Central Scotland | Change Station
CLOSE
Current Station
Personal Weather Station
Location: Polmont, FALKIRK
Elevation: 187 ft
Nearby Weather Stations

Elev 187 ft 55.99 °N, 3.72 °W | Updated 25 seconds ago

Light Rain
Light Rain
40.4 °F
Feels Like 32 °F
N
17.3
Wind Variable Wind from WNW
Gusts 17.3 mph

Today
High -- | Low -- °F
--% Chance of Precip.
Yesterday
High -- | Low -- °F
Precip. -- in
8:43 AM 3:40 PM
Waning Crescent, 10% visible
Pressure 29.47 in
Visibility 6.2 miles
Clouds Mostly Cloudy 1700 ft
Mostly Cloudy 2200 ft
Windchill 32 °F
Dew Point 38 °F
Humidity 90%
Rainfall 0.02 in
Snow Depth Not available.
UV 0 out of 12
Pollen Not available.
Air Quality Not available.
Flu Activity Not available.
METAR EGPH 190320Z 25015KT 9999 -RA BKN017 BKN022 04/02 Q0998

More Conditions Fewer Conditions

Pressure 29.47 in
Visibility 6.2 miles
Clouds Mostly Cloudy 1700 ft
Mostly Cloudy 2200 ft
Windchill 32 °F
Dew Point 38 °F
Humidity 90%
Rainfall 0.02 in
Snow Depth Not available.
UV 0 out of 12
Pollen Not available.
Air Quality Not available.
Flu Activity Not available.
METAR EGPH 190320Z 25015KT 9999 -RA BKN017 BKN022 04/02 Q0998

More Conditions Fewer Conditions

10-Day Weather Forecast

Almanac

Astronomy

Dec. 19, 2014 Rise Set
Actual Time
Civil Twilight
Nautical Twilight
Astronomical Twilight
Moon
Length of Visible Light
Length of Day
Tomorrow will be .
, % of the Moon is Illuminated

Today's Extremes

Country Highs Country Lows

Community

WunderPhotos

Upload Photos

1,778,991 photos uploaded!

WunderBlogs® & News

Nearby

Air Quality

  Air Quality AQ Index Pollutant
Not available.

Snow Depth

Station Depth Elevation

Earthquake Activity

City Distance Mag. Time & Date
Minimum magnitude displayed is 2.5.

Coastal Water Temperatures

Place Temperature

Nearby Weather Stations